createdAt,value
2017-06-29T00:02:07.001Z,17.10
2017-06-29T00:04:35.352Z,17.10
2017-06-29T00:07:03.712Z,17.10
2017-06-29T00:09:33.004Z,17.10
2017-06-29T00:12:01.335Z,17.10
2017-06-29T00:14:29.643Z,17.10
2017-06-29T00:16:58.754Z,17.10
2017-06-29T00:19:27.820Z,17.10
2017-06-29T00:21:56.551Z,17.10
2017-06-29T00:24:24.859Z,17.10
2017-06-29T00:26:53.184Z,17.10
2017-06-29T00:29:21.540Z,17.00
2017-06-29T00:31:49.853Z,17.00
2017-06-29T00:34:18.182Z,17.00
2017-06-29T00:36:46.505Z,17.10
2017-06-29T00:39:14.854Z,17.00
2017-06-29T00:41:43.165Z,17.00
2017-06-29T00:44:11.914Z,17.00
2017-06-29T00:46:40.237Z,17.00
2017-06-29T00:49:08.581Z,17.00
2017-06-29T00:51:37.012Z,17.00
2017-06-29T00:54:05.783Z,16.90
2017-06-29T00:56:34.113Z,16.90
2017-06-29T00:59:02.446Z,16.80
2017-06-29T01:01:30.768Z,16.80
2017-06-29T01:03:59.114Z,16.70
2017-06-29T01:06:28.392Z,16.70
2017-06-29T01:08:56.696Z,16.70
2017-06-29T01:11:26.179Z,16.60
2017-06-29T01:13:54.595Z,16.70
2017-06-29T01:16:22.958Z,16.60
2017-06-29T01:18:51.655Z,16.60
2017-06-29T01:23:48.610Z,16.40
2017-06-29T01:26:16.949Z,16.30
2017-06-29T01:28:45.657Z,16.20
2017-06-29T01:31:14.772Z,16.10
2017-06-29T01:33:43.096Z,16.00
2017-06-29T01:36:11.447Z,16.00
2017-06-29T01:38:39.786Z,16.00
2017-06-29T01:41:08.874Z,16.00
2017-06-29T01:43:37.991Z,16.00
2017-06-29T01:46:06.699Z,15.90
2017-06-29T01:48:35.496Z,15.90
2017-06-29T01:51:03.903Z,15.90
2017-06-29T01:53:32.628Z,15.80
2017-06-29T01:56:00.930Z,15.70
2017-06-29T01:58:29.673Z,15.70
2017-06-29T02:00:57.984Z,15.70
2017-06-29T02:03:26.404Z,15.70
2017-06-29T02:05:54.716Z,15.70
2017-06-29T02:08:23.159Z,15.70
2017-06-29T02:10:51.509Z,15.70
2017-06-29T02:13:19.907Z,15.70
2017-06-29T02:15:48.244Z,15.70
2017-06-29T02:18:16.565Z,15.80
2017-06-29T02:20:44.906Z,15.80
2017-06-29T02:23:14.263Z,15.80
2017-06-29T02:25:43.403Z,15.70
2017-06-29T02:28:12.520Z,15.60
2017-06-29T02:30:40.917Z,15.60
2017-06-29T02:33:09.234Z,15.50
2017-06-29T02:35:37.671Z,15.50
2017-06-29T02:38:05.975Z,15.60
2017-06-29T02:40:35.051Z,15.20
2017-06-29T02:43:03.382Z,15.50
2017-06-29T02:45:31.695Z,15.60
2017-06-29T02:48:00.804Z,15.40
2017-06-29T02:50:30.307Z,15.40
2017-06-29T02:52:58.638Z,15.30
2017-06-29T02:55:27.349Z,15.30
2017-06-29T02:57:55.752Z,15.20
2017-06-29T03:00:24.929Z,15.30
2017-06-29T03:02:54.129Z,15.30
2017-06-29T03:05:23.190Z,15.40
2017-06-29T03:07:51.531Z,15.40
2017-06-29T03:10:20.596Z,15.50
2017-06-29T03:12:49.302Z,15.40
2017-06-29T03:15:18.417Z,15.50
2017-06-29T03:17:46.927Z,15.50
2017-06-29T03:20:15.659Z,15.60
2017-06-29T03:22:44.766Z,15.60
2017-06-29T03:25:13.104Z,15.60
2017-06-29T03:27:41.408Z,15.60
2017-06-29T03:30:09.799Z,15.60
2017-06-29T03:32:38.159Z,15.60
2017-06-29T03:35:07.228Z,15.60
2017-06-29T03:37:35.614Z,15.50
2017-06-29T03:40:04.689Z,15.50
2017-06-29T03:42:33.835Z,15.60
2017-06-29T03:45:02.907Z,15.70
2017-06-29T03:47:31.247Z,15.70
2017-06-29T03:49:59.560Z,15.60
2017-06-29T03:52:27.905Z,15.60
2017-06-29T03:54:56.215Z,15.60
2017-06-29T03:57:24.532Z,15.60
2017-06-29T03:59:52.880Z,15.60
2017-06-29T04:02:21.175Z,15.60
2017-06-29T04:04:49.635Z,15.60
2017-06-29T04:07:18.703Z,15.60
2017-06-29T04:09:47.109Z,15.60
2017-06-29T04:12:15.823Z,15.70
2017-06-29T04:14:44.186Z,15.70
2017-06-29T04:17:12.553Z,15.70
2017-06-29T04:19:41.665Z,15.60
2017-06-29T04:22:09.982Z,15.60
2017-06-29T04:24:38.404Z,15.70
2017-06-29T04:27:06.744Z,15.70
2017-06-29T04:29:35.235Z,15.60
2017-06-29T04:32:03.561Z,15.60
2017-06-29T04:34:31.865Z,15.60
2017-06-29T04:37:00.980Z,15.80
2017-06-29T04:39:29.290Z,15.80
2017-06-29T04:41:57.638Z,15.80
2017-06-29T04:44:25.950Z,15.90
2017-06-29T04:46:54.280Z,15.90
2017-06-29T04:49:22.644Z,15.70
2017-06-29T04:51:51.352Z,15.70
2017-06-29T04:54:19.707Z,15.90
2017-06-29T04:56:48.018Z,16.00
2017-06-29T04:59:16.770Z,16.10
2017-06-29T05:01:45.168Z,16.10
2017-06-29T05:04:13.497Z,16.20
2017-06-29T05:06:41.809Z,16.20
2017-06-29T05:09:10.141Z,16.30
2017-06-29T05:11:38.446Z,16.30
2017-06-29T05:14:07.215Z,16.30
2017-06-29T05:16:35.522Z,16.40
2017-06-29T05:19:03.828Z,16.20
2017-06-29T05:21:32.954Z,16.20
2017-06-29T05:24:01.350Z,16.20
2017-06-29T05:26:29.713Z,16.20
2017-06-29T05:28:58.042Z,16.20
2017-06-29T05:31:26.371Z,16.10
2017-06-29T05:33:54.686Z,16.10
2017-06-29T05:36:23.017Z,16.30
2017-06-29T05:38:51.756Z,16.30
2017-06-29T05:41:20.134Z,16.40
2017-06-29T05:43:48.495Z,16.40
2017-06-29T05:46:16.799Z,16.50
2017-06-29T05:48:45.662Z,16.60
2017-06-29T05:51:13.982Z,16.50
2017-06-29T05:53:42.409Z,16.70
2017-06-29T05:56:10.739Z,16.80
2017-06-29T05:58:39.842Z,16.90
2017-06-29T06:01:08.173Z,16.80
2017-06-29T06:03:36.563Z,17.00
2017-06-29T06:06:05.285Z,17.10
2017-06-29T06:08:33.600Z,17.30
2017-06-29T06:11:01.953Z,17.30
2017-06-29T06:13:30.683Z,17.40
2017-06-29T06:15:59.019Z,17.50
2017-06-29T06:18:27.440Z,17.50
2017-06-29T06:20:55.773Z,17.70
2017-06-29T06:23:24.196Z,17.70
2017-06-29T06:25:52.532Z,17.70
2017-06-29T06:28:20.859Z,17.70
2017-06-29T06:30:49.171Z,17.80
2017-06-29T06:33:17.876Z,17.80
2017-06-29T06:35:46.184Z,17.70
2017-06-29T06:38:14.563Z,17.80
2017-06-29T06:40:42.864Z,17.90
2017-06-29T06:43:11.975Z,18.00
2017-06-29T06:45:40.292Z,17.90
2017-06-29T06:48:08.670Z,17.90
2017-06-29T06:50:37.074Z,17.90
2017-06-29T06:53:05.767Z,17.90
2017-06-29T06:55:34.118Z,18.00
2017-06-29T06:58:02.536Z,18.00
2017-06-29T07:00:30.843Z,18.00
2017-06-29T07:02:59.188Z,18.30
2017-06-29T07:05:28.256Z,18.20
2017-06-29T07:07:57.043Z,18.20
2017-06-29T07:10:25.354Z,18.30
2017-06-29T07:12:54.421Z,18.40
2017-06-29T07:15:22.765Z,18.30
2017-06-29T07:17:51.076Z,18.40
2017-06-29T07:20:19.415Z,18.50
2017-06-29T07:22:47.763Z,18.50
2017-06-29T07:25:16.082Z,18.50
2017-06-29T07:27:45.214Z,18.60
2017-06-29T07:30:14.318Z,18.60
2017-06-29T07:32:43.412Z,18.70
2017-06-29T07:35:11.780Z,18.80
2017-06-29T07:37:40.085Z,19.00
2017-06-29T07:40:08.407Z,18.90
2017-06-29T07:42:37.657Z,19.20
2017-06-29T07:45:06.089Z,19.30
2017-06-29T07:47:34.396Z,19.30
2017-06-29T07:50:03.479Z,19.60
2017-06-29T07:52:31.799Z,19.40
2017-06-29T07:55:00.122Z,19.30
2017-06-29T07:57:28.457Z,19.30
2017-06-29T07:59:56.869Z,19.40
2017-06-29T08:02:25.619Z,19.40
2017-06-29T08:04:53.933Z,19.30
2017-06-29T08:07:23.083Z,19.40
2017-06-29T08:09:51.400Z,19.50
2017-06-29T08:12:19.740Z,19.60
2017-06-29T08:14:48.058Z,19.60
2017-06-29T08:17:16.376Z,19.70
2017-06-29T08:19:44.699Z,19.70
2017-06-29T08:22:13.009Z,19.70
2017-06-29T08:24:42.224Z,19.80
2017-06-29T08:27:11.175Z,19.80
2017-06-29T08:29:39.476Z,19.90
2017-06-29T08:32:08.582Z,19.90
2017-06-29T08:34:37.665Z,20.00
2017-06-29T08:37:06.032Z,19.90
2017-06-29T08:39:34.378Z,19.90
2017-06-29T08:42:02.706Z,19.90
2017-06-29T08:44:31.464Z,20.20
2017-06-29T08:46:59.771Z,16.30
2017-06-29T08:49:28.223Z,20.20
2017-06-29T08:51:56.582Z,20.30
2017-06-29T08:54:24.895Z,20.30
2017-06-29T08:56:54.004Z,20.50
2017-06-29T08:59:22.318Z,20.50
2017-06-29T09:01:50.659Z,20.60
2017-06-29T09:04:18.978Z,20.70
2017-06-29T09:06:47.371Z,20.90
2017-06-29T09:09:15.728Z,21.20
2017-06-29T09:11:44.036Z,21.40
2017-06-29T09:14:12.377Z,21.60
2017-06-29T09:16:40.705Z,21.40
2017-06-29T09:19:09.787Z,21.60
2017-06-29T09:21:38.115Z,21.50
2017-06-29T09:24:06.582Z,21.70
2017-06-29T09:26:34.928Z,21.60
2017-06-29T09:29:04.047Z,21.80
2017-06-29T09:31:32.361Z,21.80
2017-06-29T09:34:00.697Z,21.80
2017-06-29T09:36:29.007Z,21.80
2017-06-29T09:38:57.368Z,21.60
2017-06-29T09:41:25.713Z,21.40
2017-06-29T09:43:54.809Z,21.10
2017-06-29T09:46:23.159Z,21.30
2017-06-29T09:48:51.476Z,21.50
2017-06-29T09:51:19.839Z,21.90
2017-06-29T09:53:48.933Z,22.30
2017-06-29T09:56:18.032Z,22.40
2017-06-29T09:58:46.374Z,22.40
2017-06-29T10:01:14.681Z,22.80
2017-06-29T10:03:43.007Z,22.70
2017-06-29T10:06:11.320Z,22.60
2017-06-29T10:08:40.506Z,22.00
2017-06-29T10:11:08.850Z,22.00
2017-06-29T10:13:37.217Z,22.00
2017-06-29T10:16:05.548Z,21.90
2017-06-29T10:18:34.642Z,21.90
2017-06-29T10:21:03.749Z,21.80
2017-06-29T10:23:32.077Z,21.80
2017-06-29T10:26:00.409Z,21.50
2017-06-29T10:28:29.494Z,21.40
2017-06-29T10:30:57.821Z,21.30
2017-06-29T10:33:26.228Z,21.20
2017-06-29T10:35:54.588Z,21.20
2017-06-29T10:38:22.895Z,21.20
2017-06-29T10:40:51.301Z,20.90
2017-06-29T10:43:19.614Z,20.70
2017-06-29T10:45:47.935Z,20.60
2017-06-29T10:48:17.020Z,20.50
2017-06-29T10:50:45.364Z,20.40
2017-06-29T10:53:13.701Z,20.10
2017-06-29T10:55:42.029Z,20.10
2017-06-29T10:58:10.343Z,19.60
2017-06-29T11:00:38.704Z,18.80
2017-06-29T11:03:07.032Z,18.80
2017-06-29T11:05:35.853Z,18.60
2017-06-29T11:08:04.173Z,18.60
2017-06-29T11:10:33.293Z,18.60
2017-06-29T11:13:01.636Z,18.60
2017-06-29T11:15:29.952Z,18.60
2017-06-29T11:17:58.275Z,18.50
2017-06-29T11:20:27.397Z,18.70
2017-06-29T11:22:55.836Z,18.60
2017-06-29T11:25:24.147Z,18.70
2017-06-29T11:27:52.484Z,18.70
2017-06-29T11:30:20.810Z,18.80
2017-06-29T11:32:49.125Z,18.80
2017-06-29T11:35:17.455Z,18.60
2017-06-29T11:37:45.775Z,18.70
2017-06-29T11:40:14.092Z,18.70
2017-06-29T11:42:42.431Z,18.70
2017-06-29T11:45:10.743Z,18.70
2017-06-29T11:47:39.085Z,18.70
2017-06-29T11:50:07.554Z,18.80
2017-06-29T11:52:35.958Z,18.80
2017-06-29T11:55:04.260Z,18.90
2017-06-29T11:57:32.579Z,19.00
2017-06-29T12:00:01.666Z,18.90
2017-06-29T12:02:29.990Z,19.00
2017-06-29T12:04:58.309Z,19.10
2017-06-29T12:07:26.656Z,19.30
2017-06-29T12:09:55.768Z,19.30
2017-06-29T12:12:24.101Z,19.20
2017-06-29T12:14:52.822Z,19.20
2017-06-29T12:17:22.467Z,19.30
2017-06-29T12:19:50.779Z,19.30
2017-06-29T12:22:19.124Z,19.20
2017-06-29T12:24:47.484Z,19.20
2017-06-29T12:27:15.793Z,19.30
2017-06-29T12:29:44.137Z,19.10
2017-06-29T12:32:12.498Z,19.10
2017-06-29T12:34:40.819Z,19.10
2017-06-29T12:37:09.143Z,19.10
2017-06-29T12:39:37.461Z,19.10
2017-06-29T12:42:05.823Z,19.10
2017-06-29T12:44:34.146Z,19.00
2017-06-29T12:47:12.378Z,18.90
2017-06-29T12:49:40.691Z,18.80
2017-06-29T12:52:10.935Z,18.80
2017-06-29T12:54:39.231Z,18.70
2017-06-29T12:57:18.108Z,18.70
2017-06-29T12:59:46.427Z,18.60
2017-06-29T13:02:14.999Z,18.70
2017-06-29T13:04:43.388Z,18.70
2017-06-29T13:07:11.728Z,18.70
2017-06-29T13:09:40.071Z,18.80
2017-06-29T13:12:08.386Z,18.80
2017-06-29T13:14:36.710Z,18.80
2017-06-29T13:17:05.805Z,19.10
2017-06-29T13:19:34.288Z,19.00
2017-06-29T13:22:03.373Z,19.10
2017-06-29T13:24:31.686Z,19.10
2017-06-29T13:27:00.044Z,19.20
2017-06-29T13:29:29.210Z,19.30
2017-06-29T13:31:57.553Z,19.30
2017-06-29T13:34:25.875Z,19.40
2017-06-29T13:36:54.195Z,19.40
2017-06-29T13:39:22.556Z,19.30
2017-06-29T13:41:50.889Z,19.40
2017-06-29T13:44:19.197Z,19.50
2017-06-29T13:46:47.543Z,19.60
2017-06-29T13:49:16.628Z,19.60
2017-06-29T13:51:44.952Z,19.60
2017-06-29T13:54:14.042Z,19.70
2017-06-29T13:56:43.172Z,19.60
2017-06-29T13:59:11.486Z,19.50
2017-06-29T14:01:39.803Z,19.60
2017-06-29T14:04:08.141Z,19.80
2017-06-29T14:06:36.496Z,19.90
2017-06-29T14:09:04.809Z,20.10
2017-06-29T14:11:33.118Z,20.20
2017-06-29T14:14:01.462Z,20.40
2017-06-29T14:16:30.583Z,20.50
2017-06-29T14:18:58.944Z,20.50
2017-06-29T14:21:27.292Z,20.60
2017-06-29T14:23:55.612Z,20.90
2017-06-29T14:26:23.947Z,20.80
2017-06-29T14:28:52.280Z,20.70
2017-06-29T14:31:21.020Z,20.70
2017-06-29T14:33:49.375Z,20.70
2017-06-29T14:36:17.686Z,20.70
2017-06-29T14:38:46.020Z,20.70
2017-06-29T14:41:14.732Z,20.70
2017-06-29T14:43:43.104Z,20.60
2017-06-29T14:46:11.413Z,20.60
2017-06-29T14:48:40.516Z,20.50
2017-06-29T14:51:08.841Z,20.50
2017-06-29T14:53:37.176Z,20.30
2017-06-29T14:56:05.502Z,20.10
2017-06-29T14:58:33.830Z,20.50
2017-06-29T15:01:02.563Z,19.20
2017-06-29T15:03:30.914Z,19.00
2017-06-29T15:05:59.241Z,18.90
2017-06-29T15:08:28.348Z,18.60
2017-06-29T15:10:57.427Z,18.50
2017-06-29T15:13:25.799Z,18.50
2017-06-29T15:15:54.134Z,18.40
2017-06-29T15:18:22.443Z,18.50
2017-06-29T15:20:50.771Z,18.40
2017-06-29T15:23:19.506Z,18.40
2017-06-29T15:25:47.850Z,18.40
2017-06-29T15:28:16.187Z,18.20
2017-06-29T15:30:45.295Z,18.20
2017-06-29T15:33:13.603Z,18.20
2017-06-29T15:35:42.343Z,18.10
2017-06-29T15:38:11.454Z,18.10
2017-06-29T15:40:39.776Z,18.10
2017-06-29T15:43:08.108Z,18.10
2017-06-29T15:45:36.434Z,18.10
2017-06-29T15:48:04.815Z,18.10
2017-06-29T15:50:33.144Z,18.10
2017-06-29T15:53:01.476Z,18.20
2017-06-29T15:55:29.801Z,18.10
2017-06-29T15:57:58.152Z,18.10
2017-06-29T16:00:27.228Z,18.20
2017-06-29T16:02:55.564Z,18.10
2017-06-29T16:05:23.880Z,18.20
2017-06-29T16:07:52.206Z,18.20
2017-06-29T16:10:20.525Z,18.20
2017-06-29T16:12:48.916Z,18.20
2017-06-29T16:15:17.237Z,18.20
2017-06-29T16:17:45.582Z,18.20
2017-06-29T16:20:13.893Z,18.10
2017-06-29T16:22:42.260Z,18.10
2017-06-29T16:25:11.102Z,18.10
2017-06-29T16:27:39.534Z,18.00
2017-06-29T16:30:07.883Z,18.00
2017-06-29T16:32:36.964Z,17.90
2017-06-29T16:35:05.395Z,17.90
2017-06-29T16:37:33.782Z,17.80
2017-06-29T16:40:02.096Z,17.80
2017-06-29T16:42:30.439Z,17.90
2017-06-29T16:44:58.776Z,17.90
2017-06-29T16:47:27.219Z,17.90
2017-06-29T16:49:55.533Z,17.80
2017-06-29T16:52:24.631Z,17.70
2017-06-29T16:54:52.980Z,17.70
2017-06-29T16:57:21.325Z,17.70
2017-06-29T16:59:49.722Z,17.70
2017-06-29T17:02:18.076Z,17.70
2017-06-29T17:04:46.433Z,17.70
2017-06-29T17:07:14.758Z,17.70
2017-06-29T17:09:43.081Z,17.60
2017-06-29T17:12:11.397Z,17.70
2017-06-29T17:14:39.728Z,17.70
2017-06-29T17:17:08.076Z,17.70
2017-06-29T17:19:37.258Z,17.80
2017-06-29T17:22:05.588Z,17.80
2017-06-29T17:24:33.899Z,17.70
2017-06-29T17:27:03.019Z,17.70
2017-06-29T17:29:32.099Z,17.70
2017-06-29T17:32:00.899Z,17.70
2017-06-29T17:34:29.231Z,17.70
2017-06-29T17:36:57.547Z,17.70
2017-06-29T17:39:25.915Z,17.60
2017-06-29T17:41:54.280Z,17.70
2017-06-29T17:44:22.583Z,17.60
2017-06-29T17:46:50.902Z,17.70
2017-06-29T17:49:19.237Z,17.60
2017-06-29T17:51:48.324Z,17.50
2017-06-29T17:54:16.674Z,17.60
2017-06-29T17:56:44.984Z,17.50
2017-06-29T17:59:13.725Z,17.50
2017-06-29T18:01:42.039Z,17.50
2017-06-29T18:04:10.353Z,17.30
2017-06-29T18:06:38.695Z,17.30
2017-06-29T18:09:08.524Z,17.20
2017-06-29T18:11:36.892Z,17.30
2017-06-29T18:14:05.590Z,17.40
2017-06-29T18:16:34.311Z,17.30
2017-06-29T18:19:02.655Z,17.20
2017-06-29T18:21:30.986Z,17.10
2017-06-29T18:23:59.348Z,17.20
2017-06-29T18:26:27.674Z,17.20
2017-06-29T18:28:55.981Z,17.10
2017-06-29T18:31:24.989Z,17.10
2017-06-29T18:33:53.309Z,17.10
2017-06-29T18:36:21.659Z,17.00
2017-06-29T18:38:49.964Z,17.10
2017-06-29T18:41:19.076Z,17.00
2017-06-29T18:43:48.169Z,17.00
2017-06-29T18:46:16.537Z,16.90
2017-06-29T18:48:45.616Z,17.00
2017-06-29T18:51:14.059Z,17.00
2017-06-29T18:53:42.460Z,16.90
2017-06-29T18:56:10.764Z,16.90
2017-06-29T18:58:39.896Z,16.90
2017-06-29T19:01:08.219Z,16.90
2017-06-29T19:03:36.575Z,16.90
2017-06-29T19:06:05.288Z,16.90
2017-06-29T19:08:33.607Z,16.90
2017-06-29T19:11:01.952Z,16.90
2017-06-29T19:13:30.681Z,16.80
2017-06-29T19:15:59.021Z,16.80
2017-06-29T19:18:28.109Z,16.70
2017-06-29T19:20:56.452Z,16.70
2017-06-29T19:23:24.769Z,16.70
2017-06-29T19:25:53.916Z,16.50
2017-06-29T19:28:22.649Z,16.50
2017-06-29T19:30:52.669Z,16.50
2017-06-29T19:33:21.418Z,16.50
2017-06-29T19:35:49.742Z,16.50
2017-06-29T19:38:18.854Z,16.40
2017-06-29T19:40:47.211Z,16.40
2017-06-29T19:43:16.325Z,16.30
2017-06-29T19:45:44.657Z,16.20
2017-06-29T19:48:12.982Z,16.20
2017-06-29T19:50:41.310Z,16.10
2017-06-29T19:53:09.650Z,16.10
2017-06-29T19:55:37.960Z,16.20
2017-06-29T19:58:06.304Z,16.20
2017-06-29T20:00:34.660Z,16.00
2017-06-29T20:03:03.093Z,16.00
2017-06-29T20:05:31.423Z,16.00
2017-06-29T20:08:14.841Z,16.00
2017-06-29T20:10:49.813Z,16.00
2017-06-29T20:13:18.128Z,16.00
2017-06-29T20:15:47.255Z,15.90
2017-06-29T20:18:15.585Z,15.80
2017-06-29T20:20:44.682Z,15.80
2017-06-29T20:23:13.027Z,15.80
2017-06-29T20:25:41.332Z,15.80
2017-06-29T20:28:09.692Z,15.90
2017-06-29T20:30:38.013Z,15.80
2017-06-29T20:33:07.140Z,15.70
2017-06-29T20:35:35.531Z,15.80
2017-06-29T20:38:03.835Z,15.70
2017-06-29T20:40:32.201Z,15.80
2017-06-29T20:43:00.552Z,15.70
2017-06-29T20:45:28.872Z,15.70
2017-06-29T20:47:57.236Z,15.60
2017-06-29T20:50:25.588Z,15.70
2017-06-29T20:52:53.883Z,15.80
2017-06-29T20:55:22.239Z,15.70
2017-06-29T20:57:51.168Z,15.60
2017-06-29T21:00:19.494Z,15.60
2017-06-29T21:02:47.854Z,15.70
2017-06-29T21:05:16.203Z,15.70
2017-06-29T21:07:44.508Z,15.70
2017-06-29T21:10:12.874Z,15.70
2017-06-29T21:12:41.327Z,15.70
2017-06-29T21:15:10.943Z,15.70
2017-06-29T21:17:44.085Z,15.70
2017-06-29T21:20:14.072Z,15.70
2017-06-29T21:22:43.255Z,15.60
2017-06-29T21:25:12.375Z,15.60
2017-06-29T21:27:40.696Z,15.60
2017-06-29T21:30:09.851Z,15.70
2017-06-29T21:32:39.183Z,15.70
2017-06-29T21:35:08.493Z,15.60
2017-06-29T21:37:37.574Z,15.60
2017-06-29T21:40:05.939Z,15.60
2017-06-29T21:42:34.499Z,15.60
2017-06-29T21:45:03.030Z,15.60
2017-06-29T21:47:45.722Z,15.70
2017-06-29T21:50:14.567Z,15.70
2017-06-29T21:52:53.947Z,15.60
2017-06-29T21:55:27.968Z,15.70
2017-06-29T21:58:00.517Z,15.60
2017-06-29T22:00:36.334Z,15.60
2017-06-29T22:03:11.545Z,15.60
2017-06-29T22:05:44.012Z,15.50
2017-06-29T22:08:12.333Z,15.60
2017-06-29T22:10:45.614Z,15.60
2017-06-29T22:13:17.984Z,15.50
2017-06-29T22:15:50.663Z,15.60
2017-06-29T22:18:22.675Z,15.70
2017-06-29T22:20:55.650Z,15.60
2017-06-29T22:23:23.972Z,15.60
2017-06-29T22:25:52.575Z,15.60
2017-06-29T22:28:20.880Z,15.60
2017-06-29T22:30:49.180Z,15.60
2017-06-29T22:33:17.589Z,15.60
2017-06-29T22:35:46.033Z,15.60
2017-06-29T22:38:14.344Z,15.50
2017-06-29T22:40:42.668Z,15.60
2017-06-29T22:43:11.046Z,15.60
2017-06-29T22:45:39.356Z,15.60
2017-06-29T22:48:07.700Z,15.50
2017-06-29T22:50:36.014Z,15.50
2017-06-29T22:53:04.338Z,15.50
2017-06-29T22:55:33.421Z,15.50
2017-06-29T22:58:02.544Z,15.50
2017-06-29T23:00:30.855Z,15.50
2017-06-29T23:02:59.162Z,15.50
2017-06-29T23:05:27.504Z,15.40
2017-06-29T23:07:55.815Z,15.40
2017-06-29T23:10:24.167Z,15.40
2017-06-29T23:12:52.480Z,15.40
2017-06-29T23:15:21.558Z,15.40
2017-06-29T23:17:49.894Z,15.30
2017-06-29T23:20:18.212Z,15.40
2017-06-29T23:22:46.829Z,15.40
2017-06-29T23:25:15.163Z,15.40
2017-06-29T23:27:43.488Z,15.40
2017-06-29T23:30:11.805Z,15.40
2017-06-29T23:32:40.136Z,15.40
2017-06-29T23:35:08.469Z,15.40
2017-06-29T23:37:36.800Z,15.40
2017-06-29T23:40:05.110Z,15.40
2017-06-29T23:42:33.433Z,15.30
2017-06-29T23:45:01.782Z,15.30
2017-06-29T23:47:30.092Z,15.30
2017-06-29T23:49:58.414Z,15.30
2017-06-29T23:52:26.752Z,15.30
2017-06-29T23:54:55.090Z,15.40
2017-06-29T23:57:23.408Z,15.30
2017-06-29T23:59:51.835Z,15.30
